Terminal Aerodrome Forecast
Issued by NWS

Home | Current Version | Previous Version | Text Only | Print | Product List | Glossary On
Versions: 1 2 3 4 5 6 7 8 9 10 11 12 13 14 15 16 17 18 19 20
000
FTUS43 KOAX 231720
TAFBFF
TAF
KBFF 231720Z 2318/2418 03010KT 5SM BR OVC014
      TEMPO 2318/2321 2SM BR OVC009
     FM232100 05009KT 3SM BR OVC009
     FM240200 01010KT 1SM BR OVC011
     FM241500 02008KT 4SM BR OVC018=

USA.gov is the U.S. government's official web portal to all federal, state and local government web resources and services.